sensor_id;sensor_type;location;lat;lon;timestamp;temperature;humidity
7796;DHT22;3942;51.518;6.912;2023-08-08T00:50:13;15.50;94.70
7796;DHT22;3942;51.518;6.912;2023-08-08T01:05:20;15.70;41.10
7796;DHT22;3942;51.518;6.912;2023-08-08T01:15:29;15.50;1.00
7796;DHT22;3942;51.518;6.912;2023-08-08T01:20:33;16.60;99.90
7796;DHT22;3942;51.518;6.912;2023-08-08T01:50:56;15.60;31.90
7796;DHT22;3942;51.518;6.912;2023-08-08T02:01:02;15.20;99.90
7796;DHT22;3942;51.518;6.912;2023-08-08T02:16:09;15.20;1.00
7796;DHT22;3942;51.518;6.912;2023-08-08T02:31:17;15.10;91.50
7796;DHT22;3942;51.518;6.912;2023-08-08T02:36:21;15.00;1.00
7796;DHT22;3942;51.518;6.912;2023-08-08T02:56:30;15.20;1.00
7796;DHT22;3942;51.518;6.912;2023-08-08T03:11:40;14.90;99.90
7796;DHT22;3942;51.518;6.912;2023-08-08T03:16:44;14.90;1.00
7796;DHT22;3942;51.518;6.912;2023-08-08T03:46:59;14.80;99.90
7796;DHT22;3942;51.518;6.912;2023-08-08T04:07:09;15.10;99.90
7796;DHT22;3942;51.518;6.912;2023-08-08T04:17:14;14.80;99.90
7796;DHT22;3942;51.518;6.912;2023-08-08T04:47:29;14.70;99.90
7796;DHT22;3942;51.518;6.912;2023-08-08T05:02:37;14.80;99.90
7796;DHT22;3942;51.518;6.912;2023-08-08T05:12:41;14.90;99.90
7796;DHT22;3942;51.518;6.912;2023-08-08T05:22:47;14.90;99.90
7796;DHT22;3942;51.518;6.912;2023-08-08T05:42:56;14.70;99.90
7796;DHT22;3942;51.518;6.912;2023-08-08T06:13:13;15.00;99.90
7796;DHT22;3942;51.518;6.912;2023-08-08T06:58:37;15.40;99.90
7796;DHT22;3942;51.518;6.912;2023-08-08T07:33:57;17.60;1.00
7796;DHT22;3942;51.518;6.912;2023-08-08T07:49:04;18.00;1.00
7796;DHT22;3942;51.518;6.912;2023-08-08T07:54:07;18.90;99.90
7796;DHT22;3942;51.518;6.912;2023-08-08T08:04:12;18.90;99.90
7796;DHT22;3942;51.518;6.912;2023-08-08T08:19:20;19.00;99.90
7796;DHT22;3942;51.518;6.912;2023-08-08T08:24:22;19.30;1.00
7796;DHT22;3942;51.518;6.912;2023-08-08T08:29:24;19.70;99.90
7796;DHT22;3942;51.518;6.912;2023-08-08T08:34:27;20.10;1.00
7796;DHT22;3942;51.518;6.912;2023-08-08T08:39:29;19.90;1.00
7796;DHT22;3942;51.518;6.912;2023-08-08T08:49:35;19.80;99.90
7796;DHT22;3942;51.518;6.912;2023-08-08T08:59:41;19.90;99.90
7796;DHT22;3942;51.518;6.912;2023-08-08T09:04:45;20.00;17.20
7796;DHT22;3942;51.518;6.912;2023-08-08T09:14:54;19.50;99.90
7796;DHT22;3942;51.518;6.912;2023-08-08T09:19:58;19.10;99.90
7796;DHT22;3942;51.518;6.912;2023-08-08T09:25:01;19.30;99.90
7796;DHT22;3942;51.518;6.912;2023-08-08T09:30:04;19.30;99.90
7796;DHT22;3942;51.518;6.912;2023-08-08T09:35:08;19.50;1.00
7796;DHT22;3942;51.518;6.912;2023-08-08T09:50:17;19.70;1.00
7796;DHT22;3942;51.518;6.912;2023-08-08T09:55:20;19.70;1.00
7796;DHT22;3942;51.518;6.912;2023-08-08T10:00:22;19.70;1.00
7796;DHT22;3942;51.518;6.912;2023-08-08T10:05:27;19.80;1.80
7796;DHT22;3942;51.518;6.912;2023-08-08T10:10:30;20.00;1.00
7796;DHT22;3942;51.518;6.912;2023-08-08T10:15:32;20.00;1.00
7796;DHT22;3942;51.518;6.912;2023-08-08T10:20:41;20.00;1.00
7796;DHT22;3942;51.518;6.912;2023-08-08T10:25:44;19.60;1.00
7796;DHT22;3942;51.518;6.912;2023-08-08T10:30:49;19.30;1.00
7796;DHT22;3942;51.518;6.912;2023-08-08T10:36:04;19.20;1.00
7796;DHT22;3942;51.518;6.912;2023-08-08T10:41:11;19.00;1.00
7796;DHT22;3942;51.518;6.912;2023-08-08T10:46:13;19.10;7.70
7796;DHT22;3942;51.518;6.912;2023-08-08T10:51:17;19.00;99.90
7796;DHT22;3942;51.518;6.912;2023-08-08T10:56:19;19.30;99.90
7796;DHT22;3942;51.518;6.912;2023-08-08T11:01:25;19.50;99.90
7796;DHT22;3942;51.518;6.912;2023-08-08T11:06:28;19.20;1.00
7796;DHT22;3942;51.518;6.912;2023-08-08T11:11:36;19.00;99.90
7796;DHT22;3942;51.518;6.912;2023-08-08T11:16:38;19.40;99.90
7796;DHT22;3942;51.518;6.912;2023-08-08T11:21:48;19.30;99.90
7796;DHT22;3942;51.518;6.912;2023-08-08T11:31:53;19.80;99.90
7796;DHT22;3942;51.518;6.912;2023-08-08T11:36:56;19.90;99.90
7796;DHT22;3942;51.518;6.912;2023-08-08T11:47:02;20.10;99.90
7796;DHT22;3942;51.518;6.912;2023-08-08T11:52:06;19.80;99.90
7796;DHT22;3942;51.518;6.912;2023-08-08T11:57:08;20.00;99.90
7796;DHT22;3942;51.518;6.912;2023-08-08T12:07:14;20.10;42.10
7796;DHT22;3942;51.518;6.912;2023-08-08T12:12:16;20.20;60.70
7796;DHT22;3942;51.518;6.912;2023-08-08T12:22:21;20.00;16.30
7796;DHT22;3942;51.518;6.912;2023-08-08T12:32:26;20.10;62.70
7796;DHT22;3942;51.518;6.912;2023-08-08T12:37:30;20.20;61.00
7796;DHT22;3942;51.518;6.912;2023-08-08T12:42:32;20.30;78.80
7796;DHT22;3942;51.518;6.912;2023-08-08T12:47:34;20.40;60.30
7796;DHT22;3942;51.518;6.912;2023-08-08T12:52:38;20.30;1.00
7796;DHT22;3942;51.518;6.912;2023-08-08T12:57:40;20.10;23.90
7796;DHT22;3942;51.518;6.912;2023-08-08T13:02:43;20.10;70.20
7796;DHT22;3942;51.518;6.912;2023-08-08T13:07:46;20.10;99.90
7796;DHT22;3942;51.518;6.912;2023-08-08T13:12:48;20.00;99.90
7796;DHT22;3942;51.518;6.912;2023-08-08T13:17:51;20.30;99.90
7796;DHT22;3942;51.518;6.912;2023-08-08T13:22:54;20.30;80.90
7796;DHT22;3942;51.518;6.912;2023-08-08T13:27:56;20.10;1.00
7796;DHT22;3942;51.518;6.912;2023-08-08T13:32:58;20.20;1.00
7796;DHT22;3942;51.518;6.912;2023-08-08T13:38:01;20.20;1.00
7796;DHT22;3942;51.518;6.912;2023-08-08T13:43:03;20.10;1.00
7796;DHT22;3942;51.518;6.912;2023-08-08T13:48:06;20.10;4.00
7796;DHT22;3942;51.518;6.912;2023-08-08T13:53:09;20.20;3.60
7796;DHT22;3942;51.518;6.912;2023-08-08T13:58:11;20.00;1.00
7796;DHT22;3942;51.518;6.912;2023-08-08T14:08:16;20.10;3.00
7796;DHT22;3942;51.518;6.912;2023-08-08T14:13:18;20.00;1.00
7796;DHT22;3942;51.518;6.912;2023-08-08T14:23:24;20.20;1.00
7796;DHT22;3942;51.518;6.912;2023-08-08T14:28:26;20.40;1.00
7796;DHT22;3942;51.518;6.912;2023-08-08T14:33:27;20.30;1.00
7796;DHT22;3942;51.518;6.912;2023-08-08T14:38:35;20.30;1.00
7796;DHT22;3942;51.518;6.912;2023-08-08T14:48:39;20.20;1.00
7796;DHT22;3942;51.518;6.912;2023-08-08T14:53:42;20.30;1.00
7796;DHT22;3942;51.518;6.912;2023-08-08T14:58:47;20.40;1.00
7796;DHT22;3942;51.518;6.912;2023-08-08T15:03:49;20.40;1.00
7796;DHT22;3942;51.518;6.912;2023-08-08T15:08:53;20.50;1.00
7796;DHT22;3942;51.518;6.912;2023-08-08T15:13:55;20.50;1.00
7796;DHT22;3942;51.518;6.912;2023-08-08T15:24:00;20.30;1.00
7796;DHT22;3942;51.518;6.912;2023-08-08T15:34:05;20.40;1.00
7796;DHT22;3942;51.518;6.912;2023-08-08T15:39:08;20.50;1.00
7796;DHT22;3942;51.518;6.912;2023-08-08T15:54:17;20.00;99.90
7796;DHT22;3942;51.518;6.912;2023-08-08T15:59:19;19.90;1.00
7796;DHT22;3942;51.518;6.912;2023-08-08T16:09:25;20.00;99.90
7796;DHT22;3942;51.518;6.912;2023-08-08T16:14:27;20.00;99.90
7796;DHT22;3942;51.518;6.912;2023-08-08T16:24:32;19.90;99.90
7796;DHT22;3942;51.518;6.912;2023-08-08T16:29:34;19.80;1.00
7796;DHT22;3942;51.518;6.912;2023-08-08T16:34:36;19.80;1.00
7796;DHT22;3942;51.518;6.912;2023-08-08T16:39:39;19.90;99.90
7796;DHT22;3942;51.518;6.912;2023-08-08T16:44:41;19.80;99.90
7796;DHT22;3942;51.518;6.912;2023-08-08T16:49:42;19.80;99.90
7796;DHT22;3942;51.518;6.912;2023-08-08T16:54:46;19.80;99.90
7796;DHT22;3942;51.518;6.912;2023-08-08T16:59:48;19.80;1.00
7796;DHT22;3942;51.518;6.912;2023-08-08T17:09:53;19.70;1.00
7796;DHT22;3942;51.518;6.912;2023-08-08T17:14:55;19.70;1.00
7796;DHT22;3942;51.518;6.912;2023-08-08T17:25:00;19.50;1.00
7796;DHT22;3942;51.518;6.912;2023-08-08T17:30:03;19.50;1.00
7796;DHT22;3942;51.518;6.912;2023-08-08T17:35:09;19.50;1.00
7796;DHT22;3942;51.518;6.912;2023-08-08T17:40:12;19.40;1.00
7796;DHT22;3942;51.518;6.912;2023-08-08T17:45:14;19.20;1.00
7796;DHT22;3942;51.518;6.912;2023-08-08T17:50:16;19.00;97.50
7796;DHT22;3942;51.518;6.912;2023-08-08T17:55:19;19.10;99.90
7796;DHT22;3942;51.518;6.912;2023-08-08T18:00:21;19.00;99.90
7796;DHT22;3942;51.518;6.912;2023-08-08T18:05:23;18.90;99.90
7796;DHT22;3942;51.518;6.912;2023-08-08T18:10:26;18.90;99.90
7796;DHT22;3942;51.518;6.912;2023-08-08T18:15:28;18.80;99.90
7796;DHT22;3942;51.518;6.912;2023-08-08T18:25:34;18.70;99.90
7796;DHT22;3942;51.518;6.912;2023-08-08T18:30:35;18.60;1.00
7796;DHT22;3942;51.518;6.912;2023-08-08T18:40:41;18.40;1.00
7796;DHT22;3942;51.518;6.912;2023-08-08T18:50:45;18.40;1.00
7796;DHT22;3942;51.518;6.912;2023-08-08T18:55:48;18.30;99.90
7796;DHT22;3942;51.518;6.912;2023-08-08T19:05:52;18.10;1.00
7796;DHT22;3942;51.518;6.912;2023-08-08T19:10:55;18.00;40.70
7796;DHT22;3942;51.518;6.912;2023-08-08T19:20:59;17.70;99.90
7796;DHT22;3942;51.518;6.912;2023-08-08T19:26:02;17.60;1.00
7796;DHT22;3942;51.518;6.912;2023-08-08T19:31:04;17.70;99.90
7796;DHT22;3942;51.518;6.912;2023-08-08T19:36:06;17.60;11.20
7796;DHT22;3942;51.518;6.912;2023-08-08T19:41:11;17.60;99.90
7796;DHT22;3942;51.518;6.912;2023-08-08T19:46:13;17.60;1.00
7796;DHT22;3942;51.518;6.912;2023-08-08T19:51:15;17.40;99.90
7796;DHT22;3942;51.518;6.912;2023-08-08T19:56:18;17.60;99.90
7796;DHT22;3942;51.518;6.912;2023-08-08T20:01:20;17.50;99.90
7796;DHT22;3942;51.518;6.912;2023-08-08T20:06:23;17.20;96.70
7796;DHT22;3942;51.518;6.912;2023-08-08T20:11:27;17.20;59.80
7796;DHT22;3942;51.518;6.912;2023-08-08T20:16:28;17.30;1.00
7796;DHT22;3942;51.518;6.912;2023-08-08T20:21:30;17.10;1.00
7796;DHT22;3942;51.518;6.912;2023-08-08T20:26:34;17.00;1.00
7796;DHT22;3942;51.518;6.912;2023-08-08T20:31:36;17.00;99.90
7796;DHT22;3942;51.518;6.912;2023-08-08T20:36:38;16.90;99.90
7796;DHT22;3942;51.518;6.912;2023-08-08T20:41:41;16.90;99.90
7796;DHT22;3942;51.518;6.912;2023-08-08T20:46:44;17.10;99.90
7796;DHT22;3942;51.518;6.912;2023-08-08T20:51:49;17.00;99.90
7796;DHT22;3942;51.518;6.912;2023-08-08T20:56:56;17.00;99.90
7796;DHT22;3942;51.518;6.912;2023-08-08T21:01:58;16.90;99.90
7796;DHT22;3942;51.518;6.912;2023-08-08T21:07:00;16.90;99.90
7796;DHT22;3942;51.518;6.912;2023-08-08T21:12:04;16.70;99.90
7796;DHT22;3942;51.518;6.912;2023-08-08T21:22:08;16.50;99.90
7796;DHT22;3942;51.518;6.912;2023-08-08T21:27:11;16.70;99.90
7796;DHT22;3942;51.518;6.912;2023-08-08T21:37:15;16.70;99.90
7796;DHT22;3942;51.518;6.912;2023-08-08T21:42:19;16.70;99.90
7796;DHT22;3942;51.518;6.912;2023-08-08T21:47:21;16.80;99.90
7796;DHT22;3942;51.518;6.912;2023-08-08T21:57:26;16.80;99.90
7796;DHT22;3942;51.518;6.912;2023-08-08T22:12:34;16.60;99.90
7796;DHT22;3942;51.518;6.912;2023-08-08T22:17:35;16.60;99.90
7796;DHT22;3942;51.518;6.912;2023-08-08T22:22:37;16.60;99.90
7796;DHT22;3942;51.518;6.912;2023-08-08T22:27:40;16.60;99.90
7796;DHT22;3942;51.518;6.912;2023-08-08T22:37:45;16.70;99.90
7796;DHT22;3942;51.518;6.912;2023-08-08T22:42:48;16.70;99.90
7796;DHT22;3942;51.518;6.912;2023-08-08T22:47:51;16.60;99.90
7796;DHT22;3942;51.518;6.912;2023-08-08T22:57:57;16.60;99.90
7796;DHT22;3942;51.518;6.912;2023-08-08T23:02:58;16.60;99.90
7796;DHT22;3942;51.518;6.912;2023-08-08T23:08:02;16.60;99.90
7796;DHT22;3942;51.518;6.912;2023-08-08T23:13:06;16.70;99.90
7796;DHT22;3942;51.518;6.912;2023-08-08T23:18:08;16.70;99.90
7796;DHT22;3942;51.518;6.912;2023-08-08T23:23:10;16.60;99.90
7796;DHT22;3942;51.518;6.912;2023-08-08T23:28:13;16.60;99.90
7796;DHT22;3942;51.518;6.912;2023-08-08T23:33:17;16.60;99.90
7796;DHT22;3942;51.518;6.912;2023-08-08T23:38:19;16.60;99.90
7796;DHT22;3942;51.518;6.912;2023-08-08T23:43:23;16.40;99.90
7796;DHT22;3942;51.518;6.912;2023-08-08T23:53:27;16.30;99.90
7796;DHT22;3942;51.518;6.912;2023-08-08T23:58:30;16.30;99.90
